Bright Sailing — 9LU2534 — position and weather

sailwx.info

Track history (hours):
 
Tides and Currents Weather Stations Pressure Air Temp Water Temp Dewpoint Dewpoint Depression Visibility Wind Speed Wind Dir Waves Ship Positions

Bright Sailing

Last reported at 2018-Jul-13 05:36 UTC. Time now 2018-Jul-22 03:07 UTC.
Position N 34°28' E 134°32'.
Warning: this ship's position is 8 days out of date.

Length 76 m; draft 3.4 m.

Type: Cargo ship. MMSI: 667001731.

Date/timePositionNaut miles runAvg speedWind from/ knotsBaromVisibWave heightAir tempDewpointWater temp
2018-Jul-13 05:36N 34°28' E 134°32'2 9.0
2018-Jul-13 05:22N 34°29' E 134°34'5 8.6
2018-Jul-13 04:47N 34°31' E 134°40'4 8.7
2018-Jul-13 04:22N 34°33' E 134°43'3 8.4
2018-Jul-13 03:58N 34°34' E 134°47'3 7.4
2018-Jul-13 03:30N 34°35' E 134°51'4 6.8
2018-Jul-13 02:53N 34°37' E 134°56'3 7.8
2018-Jul-13 02:30N 34°38' E 134°59'3 6.7
2018-Jul-13 02:00N 34°36' E 135°03'3 6.9
2018-Jul-13 01:30N 34°33' E 135°06'5 9.7
2018-Jul-13 01:00N 34°29' E 135°04'5 9.6
2018-Jul-13 00:30N 34°24' E 135°02'5 9.1
2018-Jul-13 00:00N 34°20' E 135°01'5 9.2
2018-Jul-12 23:30N 34°15' E 134°59'5 9.8
2018-Jul-12 23:00N 34°11' E 134°59'5 9.5
2018-Jul-12 22:30N 34°06' E 134°60'5 9.4
2018-Jul-12 22:00N 34°01' E 134°60'5 9.0
2018-Jul-12 21:30N 33°56' E 134°60'5 9.2
2018-Jul-12 21:00N 33°52' E 135°00'4 8.5
2018-Jul-12 20:30N 33°49' E 135°03'5 8.3
2018-Jul-12 19:57N 33°46' E 135°07'225 7.7
2018-Jul-11 14:43N 34°54' E 139°27'1 6.2
2018-Jul-11 14:30N 34°55' E 139°28'3 6.7
2018-Jul-11 14:00N 34°57' E 139°31'3 6.9
2018-Jul-11 13:30N 34°60' E 139°34'5 8.7
2018-Jul-11 12:59N 35°03' E 139°38'510.5
2018-Jul-11 12:30N 35°06' E 139°42'510.0
2018-Jul-11 12:00N 35°11' E 139°45'5 9.5
2018-Jul-11 11:31N 35°15' E 139°46'5 9.5
2018-Jul-11 11:00N 35°19' E 139°43'5 9.2
2018-Jul-11 10:30N 35°24' E 139°43'5 9.3
2018-Jul-11 10:00N 35°27' E 139°47'4 7.0
2018-Jul-11 09:30N 35°30' E 139°47'1 1.8
2018-Jul-11 09:00N 35°31' E 139°45'0 0.0
2018-Jul-11 08:30N 35°31' E 139°45'0 0.0
2018-Jul-11 08:00N 35°31' E 139°45'0 0.0
2018-Jul-11 07:30N 35°31' E 139°45'0 0.0
2018-Jul-11 06:54N 35°31' E 139°45'0 0.0
2018-Jul-11 06:30N 35°31' E 139°45'0 0.0
2018-Jul-11 06:00N 35°31' E 139°45'0 0.0
2018-Jul-11 05:30N 35°31' E 139°45'0 0.0
2018-Jul-11 05:00N 35°31' E 139°45'0 0.0
2018-Jul-11 04:30N 35°31' E 139°45'0 0.0
2018-Jul-11 04:00N 35°31' E 139°45'0 0.0
2018-Jul-11 03:27N 35°31' E 139°45'0 0.0
2018-Jul-11 03:00N 35°31' E 139°45'0 0.0
2018-Jul-11 02:30N 35°31' E 139°45'0 0.0
2018-Jul-11 02:00N 35°31' E 139°45'0 0.0
2018-Jul-11 01:24N 35°31' E 139°45'0 0.0
2018-Jul-11 01:00N 35°31' E 139°45'0 0.0
2018-Jul-11 00:30N 35°31' E 139°45'0 0.2
2018-Jul-11 00:00N 35°30' E 139°45'3 6.3
2018-Jul-10 23:31N 35°29' E 139°42'5 9.2
2018-Jul-10 23:00N 35°25' E 139°46'5 9.3
2018-Jul-10 22:30N 35°21' E 139°45'4 8.0
2018-Jul-10 22:00N 35°17' E 139°45'4 8.5
2018-Jul-10 21:30N 35°13' E 139°47'5 9.6
2018-Jul-10 21:00N 35°08' E 139°45'2 4.7
2018-Jul-10 20:30N 35°10' E 139°46'5 9.9
2018-Jul-10 20:00N 35°15' E 139°46'1 2.0
2018-Jul-10 19:30N 35°16' E 139°46'5 9.2
2018-Jul-10 19:00N 35°12' E 139°47'5 9.8
2018-Jul-10 18:30N 35°07' E 139°45'510.4
2018-Jul-10 18:00N 35°03' E 139°41'510.5
2018-Jul-10 17:30N 34°59' E 139°38'611.3
2018-Jul-10 16:58N 34°54' E 139°33'1 3.3
2018-Jul-10 16:30N 34°55' E 139°33'2 3.3
2018-Jul-10 15:51N 34°53' E 139°34'1 3.5
2018-Jul-10 15:29N 34°52' E 139°35'234 8.1
2018-Jul-09 10:25N 33°56' E 134°60'4 8.4
2018-Jul-09 09:55N 34°00' E 134°59'3 8.4
2018-Jul-09 09:30N 34°04' E 134°59'4 8.3
2018-Jul-09 09:00N 34°08' E 134°59'4 9.1
2018-Jul-09 08:30N 34°12' E 134°59'4 7.9
2018-Jul-09 08:00N 34°16' E 134°58'3 5.9
2018-Jul-09 07:30N 34°19' E 134°58'4 7.3
2018-Jul-09 07:00N 34°23' E 134°60'4 7.7
2018-Jul-09 06:30N 34°26' E 135°01'4 7.8
2018-Jul-09 06:00N 34°30' E 135°03'4 7.8
2018-Jul-09 05:30N 34°34' E 135°05'4 8.4
2018-Jul-09 05:00N 34°35' E 135°09'5 9.2
2018-Jul-09 04:30N 34°36' E 135°15'4 8.8
2018-Jul-09 04:00N 34°38' E 135°20'4 7.3
2018-Jul-09 03:30N 34°41' E 135°22'0 0.1
2018-Jul-09 02:54N 34°41' E 135°22'0 0.0
2018-Jul-09 02:30N 34°41' E 135°22'0 0.0
2018-Jul-09 02:00N 34°41' E 135°22'0 0.0
2018-Jul-09 01:30N 34°41' E 135°22'0 0.0
2018-Jul-09 01:00N 34°41' E 135°22'0 0.0
2018-Jul-09 00:30N 34°41' E 135°22'0 0.0
2018-Jul-08 23:54N 34°41' E 135°22'0 0.0
2018-Jul-08 22:42N 34°41' E 135°22'0 0.0
2018-Jul-08 22:30N 34°41' E 135°22'0 0.0
2018-Jul-08 21:48N 34°41' E 135°22'0 0.0
2018-Jul-08 21:30N 34°41' E 135°22'0 0.0
2018-Jul-08 21:00N 34°41' E 135°22'0 0.0
2018-Jul-08 20:18N 34°41' E 135°22'0 0.0
2018-Jul-08 19:42N 34°41' E 135°22'0 0.0
2018-Jul-08 19:30N 34°41' E 135°22'0 0.0
2018-Jul-08 18:59N 34°41' E 135°22'0 0.0
2018-Jul-08 18:29N 34°41' E 135°22'0 0.0
2018-Jul-08 16:59N 34°41' E 135°22'0 0.0
2018-Jul-08 16:29N 34°41' E 135°22'0 0.0
2018-Jul-08 15:53N 34°41' E 135°22'0 0.0
2018-Jul-08 15:29N 34°41' E 135°22'0 0.0
2018-Jul-08 14:59N 34°41' E 135°22'0 0.0
2018-Jul-08 14:29N 34°41' E 135°22'0 0.0
2018-Jul-08 13:59N 34°41' E 135°22'0 0.0
2018-Jul-08 13:23N 34°41' E 135°22'0 0.0
2018-Jul-08 12:59N 34°41' E 135°22'0 0.0
2018-Jul-08 12:29N 34°41' E 135°22'0 0.0
2018-Jul-08 11:59N 34°41' E 135°22'0 0.0
2018-Jul-08 11:17N 34°41' E 135°22'0 0.0
2018-Jul-08 10:53N 34°41' E 135°22'0 0.0
2018-Jul-08 10:29N 34°41' E 135°22'0 0.0
2018-Jul-08 09:59N 34°41' E 135°22'0 0.0
2018-Jul-08 09:23N 34°41' E 135°22'0 0.0
2018-Jul-08 08:59N 34°41' E 135°22'0 0.0
2018-Jul-08 08:17N 34°41' E 135°22'0 0.0
2018-Jul-08 07:59N 34°41' E 135°22'0 0.0
2018-Jul-08 07:29N 34°41' E 135°22'0 0.0
2018-Jul-08 06:59N 34°41' E 135°22'0 0.0
2018-Jul-08 06:29N 34°41' E 135°22'0 0.0
2018-Jul-08 05:59N 34°41' E 135°22'0 0.0
2018-Jul-08 05:29N 34°41' E 135°22'0 0.0
2018-Jul-08 04:59N 34°41' E 135°22'0 0.0
2018-Jul-08 04:23N 34°41' E 135°22'0 0.0
2018-Jul-08 03:59N 34°41' E 135°22'0 0.0
2018-Jul-08 03:29N 34°41' E 135°22'0 0.0
2018-Jul-08 02:59N 34°41' E 135°22'0 0.0
2018-Jul-08 02:23N 34°41' E 135°22'0 0.0
2018-Jul-08 01:53N 34°41' E 135°22'0 0.0
2018-Jul-08 01:29N 34°41' E 135°22'0 0.0
2018-Jul-08 00:59N 34°41' E 135°22'0 0.0
2018-Jul-08 00:29N 34°41' E 135°22'0 0.0
2018-Jul-07 23:59N 34°41' E 135°22'0 0.0
2018-Jul-07 23:29N 34°41' E 135°22'0 0.0
2018-Jul-07 22:59N 34°41' E 135°22'0 0.0
2018-Jul-07 21:35N 34°41' E 135°22'0 0.0
2018-Jul-07 21:23N 34°41' E 135°22'0 0.0
2018-Jul-07 20:59N 34°41' E 135°22'0 0.0
2018-Jul-07 20:23N 34°41' E 135°22'0 0.0
2018-Jul-07 19:47N 34°41' E 135°22'0 0.0
2018-Jul-07 19:29N 34°41' E 135°22'0 0.0
2018-Jul-07 18:47N 34°41' E 135°22'0 0.0
2018-Jul-07 18:29N 34°41' E 135°22'0 0.0
2018-Jul-07 17:53N 34°41' E 135°22'0 0.0
2018-Jul-07 17:29N 34°41' E 135°22'0 0.0
2018-Jul-07 16:59N 34°41' E 135°22'0 0.0
2018-Jul-07 16:17N 34°41' E 135°22'0 0.0
2018-Jul-07 15:59N 34°41' E 135°22'0 0.0
2018-Jul-07 15:29N 34°41' E 135°22'0 0.0
2018-Jul-07 14:59N 34°41' E 135°22'0 0.0
2018-Jul-07 14:29N 34°41' E 135°22'0 0.0
2018-Jul-07 13:59N 34°41' E 135°22'0 0.0
2018-Jul-07 13:23N 34°41' E 135°22'0 0.0
2018-Jul-07 12:59N 34°41' E 135°22'0 0.0
2018-Jul-07 12:29N 34°41' E 135°22'0 0.0
2018-Jul-07 11:53N 34°41' E 135°22'0 0.0
2018-Jul-07 11:29N 34°41' E 135°22'0 0.0
2018-Jul-07 10:53N 34°41' E 135°22'0 0.0
2018-Jul-07 10:23N 34°41' E 135°22'0 0.0
2018-Jul-07 09:59N 34°41' E 135°22'0 0.0
2018-Jul-07 09:29N 34°41' E 135°22'0 0.0
2018-Jul-07 08:59N 34°41' E 135°22'0 0.0
2018-Jul-07 08:23N 34°41' E 135°22'0 0.0
2018-Jul-07 07:53N 34°41' E 135°22'0 0.0
2018-Jul-07 07:23N 34°41' E 135°22'0 0.0
2018-Jul-07 06:53N 34°41' E 135°22'0 0.0
2018-Jul-07 06:05N 34°41' E 135°22'0 0.0
2018-Jul-07 05:59N 34°41' E 135°22'0 0.0
2018-Jul-07 05:29N 34°41' E 135°22'0 0.0
2018-Jul-07 04:52N 34°41' E 135°22'0 0.0
2018-Jul-07 04:22N 34°41' E 135°22'0 0.0
2018-Jul-07 03:58N 34°41' E 135°22'0 0.0
2018-Jul-07 03:28N 34°41' E 135°22'0 0.0
2018-Jul-07 02:58N 34°41' E 135°22'0 0.0
2018-Jul-07 02:28N 34°41' E 135°22'0 0.0
2018-Jul-07 01:58N 34°41' E 135°22'0 0.0
2018-Jul-07 01:28N 34°41' E 135°22'0 0.0
2018-Jul-07 00:58N 34°41' E 135°22'0 0.0
2018-Jul-07 00:28N 34°41' E 135°22'0 0.0
2018-Jul-06 23:52N 34°41' E 135°22'0 0.0
2018-Jul-06 23:28N 34°41' E 135°22'0 0.0
2018-Jul-06 22:58N 34°41' E 135°22'0 0.0
2018-Jul-06 22:28N 34°41' E 135°22'0 0.0
2018-Jul-06 21:58N 34°41' E 135°22'0 0.0
2018-Jul-06 21:28N 34°41' E 135°22'0 0.0
2018-Jul-06 20:58N 34°41' E 135°22'0 0.0
2018-Jul-06 20:28N 34°41' E 135°22'0 0.0
2018-Jul-06 19:58N 34°41' E 135°22'0 0.0
2018-Jul-06 19:28N 34°41' E 135°22'0 0.0
2018-Jul-06 18:52N 34°41' E 135°22'0 0.0
2018-Jul-06 18:28N 34°41' E 135°22'0 0.0
2018-Jul-06 17:58N 34°41' E 135°22'0 0.0
2018-Jul-06 17:28N 34°41' E 135°22'0 0.0
2018-Jul-06 16:58N 34°41' E 135°22'0 0.0
2018-Jul-06 16:16N 34°41' E 135°22'0 0.0
2018-Jul-06 15:46N 34°41' E 135°22'0 0.0
2018-Jul-06 15:28N 34°41' E 135°22'0 0.0
2018-Jul-06 14:58N 34°41' E 135°22'0 0.0
2018-Jul-06 14:28N 34°41' E 135°22'0 0.0
2018-Jul-06 13:58N 34°41' E 135°22'0 0.0
2018-Jul-06 13:28N 34°41' E 135°22'0 0.0
2018-Jul-06 12:58N 34°41' E 135°22'0 0.0
2018-Jul-06 12:28N 34°41' E 135°22'0 0.0
2018-Jul-06 11:52N 34°41' E 135°22'0 0.0
2018-Jul-06 11:28N 34°41' E 135°22'0 0.0
2018-Jul-06 10:52N 34°41' E 135°22'0 0.0
2018-Jul-06 10:28N 34°41' E 135°22'0 0.0
2018-Jul-06 09:58N 34°41' E 135°22'0 0.0
2018-Jul-06 09:28N 34°41' E 135°22'0 0.0
2018-Jul-06 08:52N 34°41' E 135°22'0 0.0
2018-Jul-06 08:28N 34°41' E 135°22'0 0.0
2018-Jul-06 07:58N 34°41' E 135°22'0 0.0
2018-Jul-06 07:28N 34°41' E 135°22'0 0.0
2018-Jul-06 06:58N 34°41' E 135°22'0 0.0
2018-Jul-06 05:58N 34°41' E 135°22'0 0.0
2018-Jul-06 05:22N 34°41' E 135°22'0 0.0
2018-Jul-06 04:58N 34°41' E 135°22'0 0.0
2018-Jul-06 04:28N 34°41' E 135°22'0 0.0
2018-Jul-06 03:46N 34°41' E 135°22'0 0.0
2018-Jul-06 03:28N 34°41' E 135°22'0 0.0
2018-Jul-06 02:58N 34°41' E 135°22'0 0.0
2018-Jul-06 02:28N 34°41' E 135°22'0 0.0
2018-Jul-06 01:58N 34°41' E 135°22'0 0.0
2018-Jul-06 01:16N 34°41' E 135°22'0 0.0
2018-Jul-06 00:58N 34°41' E 135°22'0 0.0
2018-Jul-05 23:47N 34°41' E 135°22'0 0.0
2018-Jul-05 23:30N 34°41' E 135°22'0 0.1
2018-Jul-05 23:00N 34°41' E 135°22'0 0.1
2018-Jul-05 22:30N 34°41' E 135°22'1 2.7
2018-Jul-05 22:00N 34°40' E 135°21'1 1.1
2018-Jul-05 21:18N 34°40' E 135°20'0 0.0
2018-Jul-05 20:54N 34°40' E 135°20'0 0.0
2018-Jul-05 20:30N 34°40' E 135°20'0 0.0
2018-Jul-05 20:00N 34°40' E 135°20'0 0.0
2018-Jul-05 19:24N 34°40' E 135°20'0 0.0
2018-Jul-05 18:54N 34°40' E 135°20'0 0.0
2018-Jul-05 18:18N 34°40' E 135°20'0 0.0
2018-Jul-05 18:00N 34°40' E 135°20'0 0.0
2018-Jul-05 17:30N 34°40' E 135°20'0 0.0
2018-Jul-05 16:36N 34°40' E 135°20'0 0.2
2018-Jul-05 16:30N 34°40' E 135°20'0 0.1
2018-Jul-05 16:00N 34°40' E 135°20'0 0.0
2018-Jul-05 15:30N 34°40' E 135°20'0 0.1
2018-Jul-05 15:00N 34°40' E 135°20'0 0.1
2018-Jul-05 14:00N 34°40' E 135°21'1 1.8
2018-Jul-05 13:31N 34°39' E 135°20'4 8.1
2018-Jul-05 13:01N 34°37' E 135°16'4 7.5
2018-Jul-05 12:31N 34°35' E 135°12'4 7.4
2018-Jul-05 12:01N 34°35' E 135°08'3 6.5
2018-Jul-05 11:30N 34°35' E 135°04'4 7.1
2018-Jul-05 11:00N 34°37' E 134°60'711.6
2018-Jul-05 10:21N 34°34' E 134°51'410.2
2018-Jul-05 10:00N 34°33' E 134°48'5 9.8
2018-Jul-05 09:31N 34°31' E 134°42'5 9.1
2018-Jul-05 08:59N 34°30' E 134°36'4 8.6
2018-Jul-05 08:30N 34°32' E 134°32'5 8.2
2018-Jul-05 07:52N 34°34' E 134°26'  
Track history (hours):
 
Tides and Currents Weather Stations Pressure Air Temp Water Temp Dewpoint Dewpoint Depression Visibility Wind Speed Wind Dir Waves Ship Positions

Bright Sailing

Last reported at 2018-Jul-13 05:36 UTC. Time now 2018-Jul-22 03:07 UTC.
Position N 34°28' E 134°32'.
Warning: this ship's position is 8 days out of date.

Length 76 m; draft 3.4 m.

Type: Cargo ship. MMSI: 667001731.

Date/timePositionNaut miles runAvg speedWind from/ knotsBaromVisibWave heightAir tempDewpointWater temp
2018-Jul-13 05:36N 34°28' E 134°32'2 9.0
2018-Jul-13 05:22N 34°29' E 134°34'5 8.6
2018-Jul-13 04:47N 34°31' E 134°40'4 8.7
2018-Jul-13 04:22N 34°33' E 134°43'3 8.4
2018-Jul-13 03:58N 34°34' E 134°47'3 7.4
2018-Jul-13 03:30N 34°35' E 134°51'4 6.8
2018-Jul-13 02:53N 34°37' E 134°56'3 7.8
2018-Jul-13 02:30N 34°38' E 134°59'3 6.7
2018-Jul-13 02:00N 34°36' E 135°03'3 6.9
2018-Jul-13 01:30N 34°33' E 135°06'5 9.7
2018-Jul-13 01:00N 34°29' E 135°04'5 9.6
2018-Jul-13 00:30N 34°24' E 135°02'5 9.1
2018-Jul-13 00:00N 34°20' E 135°01'5 9.2
2018-Jul-12 23:30N 34°15' E 134°59'5 9.8
2018-Jul-12 23:00N 34°11' E 134°59'5 9.5
2018-Jul-12 22:30N 34°06' E 134°60'5 9.4
2018-Jul-12 22:00N 34°01' E 134°60'5 9.0
2018-Jul-12 21:30N 33°56' E 134°60'5 9.2
2018-Jul-12 21:00N 33°52' E 135°00'4 8.5
2018-Jul-12 20:30N 33°49' E 135°03'5 8.3
2018-Jul-12 19:57N 33°46' E 135°07'225 7.7
2018-Jul-11 14:43N 34°54' E 139°27'1 6.2
2018-Jul-11 14:30N 34°55' E 139°28'3 6.7
2018-Jul-11 14:00N 34°57' E 139°31'3 6.9
2018-Jul-11 13:30N 34°60' E 139°34'5 8.7
2018-Jul-11 12:59N 35°03' E 139°38'510.5
2018-Jul-11 12:30N 35°06' E 139°42'510.0
2018-Jul-11 12:00N 35°11' E 139°45'5 9.5
2018-Jul-11 11:31N 35°15' E 139°46'5 9.5
2018-Jul-11 11:00N 35°19' E 139°43'5 9.2
2018-Jul-11 10:30N 35°24' E 139°43'5 9.3
2018-Jul-11 10:00N 35°27' E 139°47'4 7.0
2018-Jul-11 09:30N 35°30' E 139°47'1 1.8
2018-Jul-11 09:00N 35°31' E 139°45'0 0.0
2018-Jul-11 08:30N 35°31' E 139°45'0 0.0
2018-Jul-11 08:00N 35°31' E 139°45'0 0.0
2018-Jul-11 07:30N 35°31' E 139°45'0 0.0
2018-Jul-11 06:54N 35°31' E 139°45'0 0.0
2018-Jul-11 06:30N 35°31' E 139°45'0 0.0
2018-Jul-11 06:00N 35°31' E 139°45'0 0.0
2018-Jul-11 05:30N 35°31' E 139°45'0 0.0
2018-Jul-11 05:00N 35°31' E 139°45'0 0.0
2018-Jul-11 04:30N 35°31' E 139°45'0 0.0
2018-Jul-11 04:00N 35°31' E 139°45'0 0.0
2018-Jul-11 03:27N 35°31' E 139°45'0 0.0
2018-Jul-11 03:00N 35°31' E 139°45'0 0.0
2018-Jul-11 02:30N 35°31' E 139°45'0 0.0
2018-Jul-11 02:00N 35°31' E 139°45'0 0.0
2018-Jul-11 01:24N 35°31' E 139°45'0 0.0
2018-Jul-11 01:00N 35°31' E 139°45'0 0.0
2018-Jul-11 00:30N 35°31' E 139°45'0 0.2
2018-Jul-11 00:00N 35°30' E 139°45'3 6.3
2018-Jul-10 23:31N 35°29' E 139°42'5 9.2
2018-Jul-10 23:00N 35°25' E 139°46'5 9.3
2018-Jul-10 22:30N 35°21' E 139°45'4 8.0
2018-Jul-10 22:00N 35°17' E 139°45'4 8.5
2018-Jul-10 21:30N 35°13' E 139°47'5 9.6
2018-Jul-10 21:00N 35°08' E 139°45'2 4.7
2018-Jul-10 20:30N 35°10' E 139°46'5 9.9
2018-Jul-10 20:00N 35°15' E 139°46'1 2.0
2018-Jul-10 19:30N 35°16' E 139°46'5 9.2
2018-Jul-10 19:00N 35°12' E 139°47'5 9.8
2018-Jul-10 18:30N 35°07' E 139°45'510.4
2018-Jul-10 18:00N 35°03' E 139°41'510.5
2018-Jul-10 17:30N 34°59' E 139°38'611.3
2018-Jul-10 16:58N 34°54' E 139°33'1 3.3
2018-Jul-10 16:30N 34°55' E 139°33'2 3.3
2018-Jul-10 15:51N 34°53' E 139°34'1 3.5
2018-Jul-10 15:29N 34°52' E 139°35'234 8.1
2018-Jul-09 10:25N 33°56' E 134°60'4 8.4
2018-Jul-09 09:55N 34°00' E 134°59'3 8.4
2018-Jul-09 09:30N 34°04' E 134°59'4 8.3
2018-Jul-09 09:00N 34°08' E 134°59'4 9.1
2018-Jul-09 08:30N 34°12' E 134°59'4 7.9
2018-Jul-09 08:00N 34°16' E 134°58'3 5.9
2018-Jul-09 07:30N 34°19' E 134°58'4 7.3
2018-Jul-09 07:00N 34°23' E 134°60'4 7.7
2018-Jul-09 06:30N 34°26' E 135°01'4 7.8
2018-Jul-09 06:00N 34°30' E 135°03'4 7.8
2018-Jul-09 05:30N 34°34' E 135°05'4 8.4
2018-Jul-09 05:00N 34°35' E 135°09'5 9.2
2018-Jul-09 04:30N 34°36' E 135°15'4 8.8
2018-Jul-09 04:00N 34°38' E 135°20'4 7.3
2018-Jul-09 03:30N 34°41' E 135°22'0 0.1
2018-Jul-09 02:54N 34°41' E 135°22'0 0.0
2018-Jul-09 02:30N 34°41' E 135°22'0 0.0
2018-Jul-09 02:00N 34°41' E 135°22'0 0.0
2018-Jul-09 01:30N 34°41' E 135°22'0 0.0
2018-Jul-09 01:00N 34°41' E 135°22'0 0.0
2018-Jul-09 00:30N 34°41' E 135°22'0 0.0
2018-Jul-08 23:54N 34°41' E 135°22'0 0.0
2018-Jul-08 22:42N 34°41' E 135°22'0 0.0
2018-Jul-08 22:30N 34°41' E 135°22'0 0.0
2018-Jul-08 21:48N 34°41' E 135°22'0 0.0
2018-Jul-08 21:30N 34°41' E 135°22'0 0.0
2018-Jul-08 21:00N 34°41' E 135°22'0 0.0
2018-Jul-08 20:18N 34°41' E 135°22'0 0.0
2018-Jul-08 19:42N 34°41' E 135°22'0 0.0
2018-Jul-08 19:30N 34°41' E 135°22'0 0.0
2018-Jul-08 18:59N 34°41' E 135°22'0 0.0
2018-Jul-08 18:29N 34°41' E 135°22'0 0.0
2018-Jul-08 16:59N 34°41' E 135°22'0 0.0
2018-Jul-08 16:29N 34°41' E 135°22'0 0.0
2018-Jul-08 15:53N 34°41' E 135°22'0 0.0
2018-Jul-08 15:29N 34°41' E 135°22'0 0.0
2018-Jul-08 14:59N 34°41' E 135°22'0 0.0
2018-Jul-08 14:29N 34°41' E 135°22'0 0.0
2018-Jul-08 13:59N 34°41' E 135°22'0 0.0
2018-Jul-08 13:23N 34°41' E 135°22'0 0.0
2018-Jul-08 12:59N 34°41' E 135°22'0 0.0
2018-Jul-08 12:29N 34°41' E 135°22'0 0.0
2018-Jul-08 11:59N 34°41' E 135°22'0 0.0
2018-Jul-08 11:17N 34°41' E 135°22'0 0.0
2018-Jul-08 10:53N 34°41' E 135°22'0 0.0
2018-Jul-08 10:29N 34°41' E 135°22'0 0.0
2018-Jul-08 09:59N 34°41' E 135°22'0 0.0
2018-Jul-08 09:23N 34°41' E 135°22'0 0.0
2018-Jul-08 08:59N 34°41' E 135°22'0 0.0
2018-Jul-08 08:17N 34°41' E 135°22'0 0.0
2018-Jul-08 07:59N 34°41' E 135°22'0 0.0
2018-Jul-08 07:29N 34°41' E 135°22'0 0.0
2018-Jul-08 06:59N 34°41' E 135°22'0 0.0
2018-Jul-08 06:29N 34°41' E 135°22'0 0.0
2018-Jul-08 05:59N 34°41' E 135°22'0 0.0
2018-Jul-08 05:29N 34°41' E 135°22'0 0.0
2018-Jul-08 04:59N 34°41' E 135°22'0 0.0
2018-Jul-08 04:23N 34°41' E 135°22'0 0.0
2018-Jul-08 03:59N 34°41' E 135°22'0 0.0
2018-Jul-08 03:29N 34°41' E 135°22'0 0.0
2018-Jul-08 02:59N 34°41' E 135°22'0 0.0
2018-Jul-08 02:23N 34°41' E 135°22'0 0.0
2018-Jul-08 01:53N 34°41' E 135°22'0 0.0
2018-Jul-08 01:29N 34°41' E 135°22'0 0.0
2018-Jul-08 00:59N 34°41' E 135°22'0 0.0
2018-Jul-08 00:29N 34°41' E 135°22'0 0.0
2018-Jul-07 23:59N 34°41' E 135°22'0 0.0
2018-Jul-07 23:29N 34°41' E 135°22'0 0.0
2018-Jul-07 22:59N 34°41' E 135°22'0 0.0
2018-Jul-07 21:35N 34°41' E 135°22'0 0.0
2018-Jul-07 21:23N 34°41' E 135°22'0 0.0
2018-Jul-07 20:59N 34°41' E 135°22'0 0.0
2018-Jul-07 20:23N 34°41' E 135°22'0 0.0
2018-Jul-07 19:47N 34°41' E 135°22'0 0.0
2018-Jul-07 19:29N 34°41' E 135°22'0 0.0
2018-Jul-07 18:47N 34°41' E 135°22'0 0.0
2018-Jul-07 18:29N 34°41' E 135°22'0 0.0
2018-Jul-07 17:53N 34°41' E 135°22'0 0.0
2018-Jul-07 17:29N 34°41' E 135°22'0 0.0
2018-Jul-07 16:59N 34°41' E 135°22'0 0.0
2018-Jul-07 16:17N 34°41' E 135°22'0 0.0
2018-Jul-07 15:59N 34°41' E 135°22'0 0.0
2018-Jul-07 15:29N 34°41' E 135°22'0 0.0
2018-Jul-07 14:59N 34°41' E 135°22'0 0.0
2018-Jul-07 14:29N 34°41' E 135°22'0 0.0
2018-Jul-07 13:59N 34°41' E 135°22'0 0.0
2018-Jul-07 13:23N 34°41' E 135°22'0 0.0
2018-Jul-07 12:59N 34°41' E 135°22'0 0.0
2018-Jul-07 12:29N 34°41' E 135°22'0 0.0
2018-Jul-07 11:53N 34°41' E 135°22'0 0.0
2018-Jul-07 11:29N 34°41' E 135°22'0 0.0
2018-Jul-07 10:53N 34°41' E 135°22'0 0.0
2018-Jul-07 10:23N 34°41' E 135°22'0 0.0
2018-Jul-07 09:59N 34°41' E 135°22'0 0.0
2018-Jul-07 09:29N 34°41' E 135°22'0 0.0
2018-Jul-07 08:59N 34°41' E 135°22'0 0.0
2018-Jul-07 08:23N 34°41' E 135°22'0 0.0
2018-Jul-07 07:53N 34°41' E 135°22'0 0.0
2018-Jul-07 07:23N 34°41' E 135°22'0 0.0
2018-Jul-07 06:53N 34°41' E 135°22'0 0.0
2018-Jul-07 06:05N 34°41' E 135°22'0 0.0
2018-Jul-07 05:59N 34°41' E 135°22'0 0.0
2018-Jul-07 05:29N 34°41' E 135°22'0 0.0
2018-Jul-07 04:52N 34°41' E 135°22'0 0.0
2018-Jul-07 04:22N 34°41' E 135°22'0 0.0
2018-Jul-07 03:58N 34°41' E 135°22'0 0.0
2018-Jul-07 03:28N 34°41' E 135°22'0 0.0
2018-Jul-07 02:58N 34°41' E 135°22'0 0.0
2018-Jul-07 02:28N 34°41' E 135°22'0 0.0
2018-Jul-07 01:58N 34°41' E 135°22'0 0.0
2018-Jul-07 01:28N 34°41' E 135°22'0 0.0
2018-Jul-07 00:58N 34°41' E 135°22'0 0.0
2018-Jul-07 00:28N 34°41' E 135°22'0 0.0
2018-Jul-06 23:52N 34°41' E 135°22'0 0.0
2018-Jul-06 23:28N 34°41' E 135°22'0 0.0
2018-Jul-06 22:58N 34°41' E 135°22'0 0.0
2018-Jul-06 22:28N 34°41' E 135°22'0 0.0
2018-Jul-06 21:58N 34°41' E 135°22'0 0.0
2018-Jul-06 21:28N 34°41' E 135°22'0 0.0
2018-Jul-06 20:58N 34°41' E 135°22'0 0.0
2018-Jul-06 20:28N 34°41' E 135°22'0 0.0
2018-Jul-06 19:58N 34°41' E 135°22'0 0.0
2018-Jul-06 19:28N 34°41' E 135°22'0 0.0
2018-Jul-06 18:52N 34°41' E 135°22'0 0.0
2018-Jul-06 18:28N 34°41' E 135°22'0 0.0
2018-Jul-06 17:58N 34°41' E 135°22'0 0.0
2018-Jul-06 17:28N 34°41' E 135°22'0 0.0
2018-Jul-06 16:58N 34°41' E 135°22'0 0.0
2018-Jul-06 16:16N 34°41' E 135°22'0 0.0
2018-Jul-06 15:46N 34°41' E 135°22'0 0.0
2018-Jul-06 15:28N 34°41' E 135°22'0 0.0
2018-Jul-06 14:58N 34°41' E 135°22'0 0.0
2018-Jul-06 14:28N 34°41' E 135°22'0 0.0
2018-Jul-06 13:58N 34°41' E 135°22'0 0.0
2018-Jul-06 13:28N 34°41' E 135°22'0 0.0
2018-Jul-06 12:58N 34°41' E 135°22'0 0.0
2018-Jul-06 12:28N 34°41' E 135°22'0 0.0
2018-Jul-06 11:52N 34°41' E 135°22'0 0.0
2018-Jul-06 11:28N 34°41' E 135°22'0 0.0
2018-Jul-06 10:52N 34°41' E 135°22'0 0.0
2018-Jul-06 10:28N 34°41' E 135°22'0 0.0
2018-Jul-06 09:58N 34°41' E 135°22'0 0.0
2018-Jul-06 09:28N 34°41' E 135°22'0 0.0
2018-Jul-06 08:52N 34°41' E 135°22'0 0.0
2018-Jul-06 08:28N 34°41' E 135°22'0 0.0
2018-Jul-06 07:58N 34°41' E 135°22'0 0.0
2018-Jul-06 07:28N 34°41' E 135°22'0 0.0
2018-Jul-06 06:58N 34°41' E 135°22'0 0.0
2018-Jul-06 05:58N 34°41' E 135°22'0 0.0
2018-Jul-06 05:22N 34°41' E 135°22'0 0.0
2018-Jul-06 04:58N 34°41' E 135°22'0 0.0
2018-Jul-06 04:28N 34°41' E 135°22'0 0.0
2018-Jul-06 03:46N 34°41' E 135°22'0 0.0
2018-Jul-06 03:28N 34°41' E 135°22'0 0.0
2018-Jul-06 02:58N 34°41' E 135°22'0 0.0
2018-Jul-06 02:28N 34°41' E 135°22'0 0.0
2018-Jul-06 01:58N 34°41' E 135°22'0 0.0
2018-Jul-06 01:16N 34°41' E 135°22'0 0.0
2018-Jul-06 00:58N 34°41' E 135°22'0 0.0
2018-Jul-05 23:47N 34°41' E 135°22'0 0.0
2018-Jul-05 23:30N 34°41' E 135°22'0 0.1
2018-Jul-05 23:00N 34°41' E 135°22'0 0.1
2018-Jul-05 22:30N 34°41' E 135°22'1 2.7
2018-Jul-05 22:00N 34°40' E 135°21'1 1.1
2018-Jul-05 21:18N 34°40' E 135°20'0 0.0
2018-Jul-05 20:54N 34°40' E 135°20'0 0.0
2018-Jul-05 20:30N 34°40' E 135°20'0 0.0
2018-Jul-05 20:00N 34°40' E 135°20'0 0.0
2018-Jul-05 19:24N 34°40' E 135°20'0 0.0
2018-Jul-05 18:54N 34°40' E 135°20'0 0.0
2018-Jul-05 18:18N 34°40' E 135°20'0 0.0
2018-Jul-05 18:00N 34°40' E 135°20'0 0.0
2018-Jul-05 17:30N 34°40' E 135°20'0 0.0
2018-Jul-05 16:36N 34°40' E 135°20'0 0.2
2018-Jul-05 16:30N 34°40' E 135°20'0 0.1
2018-Jul-05 16:00N 34°40' E 135°20'0 0.0
2018-Jul-05 15:30N 34°40' E 135°20'0 0.1
2018-Jul-05 15:00N 34°40' E 135°20'0 0.1
2018-Jul-05 14:00N 34°40' E 135°21'1 1.8
2018-Jul-05 13:31N 34°39' E 135°20'4 8.1
2018-Jul-05 13:01N 34°37' E 135°16'4 7.5
2018-Jul-05 12:31N 34°35' E 135°12'4 7.4
2018-Jul-05 12:01N 34°35' E 135°08'3 6.5
2018-Jul-05 11:30N 34°35' E 135°04'4 7.1
2018-Jul-05 11:00N 34°37' E 134°60'711.6
2018-Jul-05 10:21N 34°34' E 134°51'410.2
2018-Jul-05 10:00N 34°33' E 134°48'5 9.8
2018-Jul-05 09:31N 34°31' E 134°42'5 9.1
2018-Jul-05 08:59N 34°30' E 134°36'4 8.6
2018-Jul-05 08:30N 34°32' E 134°32'5 8.2
2018-Jul-05 07:52N 34°34' E 134°26'  

Dump ship's entire track history